Airfield :
LOGIN :

Register | Disclaimer

   EN    FR    IT 

 










Legend :    VFR   Marginal VFR   IFR   Intensive IFR   Very Intensive IFR
Visi :
Ceiling :
>= 8 km
>= 3000ft
5 to 8 km
1000 to 3000 ft
1500m to 5 km
500 to 1000 ft
800 to 1500m
200 to 500 ft
< 800m
< 200 ft
Symbols :   Thunderstorms  Fog  Heavy snow  Heavy precipitations  Wind > 20 kt
SIGMETs :     Misc.  Thunderstorms  Icing  Turbulence  Mountain Waves  Volcanic Ashes







- Airport Elevation : 489 ft
- IATA code : GDN


EPGD - Gdansk

CURRENT METAR :
  • 240000Z 23009KT CAVOK 08/05 Q1008

EXPIRED METARs :
  • 232330Z 23009KT CAVOK 08/04 Q1008
  • 232300Z 22009KT CAVOK 08/04 Q1008
  • 232230Z 22006KT CAVOK 08/04 Q1008
  • 232200Z 22008KT CAVOK 08/04 Q1008
  • 232130Z 22009KT CAVOK 08/04 Q1007

TAF TAF EPGD
Valid from the 24 at 00:00 until the 25 at 00:00 UTC


232330Z 2400/2424 22008KT CAVOK
BECMG 2402/2405 BKN008
TEMPO 2403/2410 4000 BR BKN004
PROB40
TEMPO 2403/2410 2000 -DZ BR
BECMG 2410/2412 BKN015
TEMPO 2410/2418 -SHRA BKN008 BKN015CB
No reported NOTAMs for that airfield.



MET'MAP, your aeronautical weather chart ! - Copyright ORBIFLY December 2007 - Disclaimer

ORBIFLY MET'MAP TEAM :

Programming & Development : Alexandra Zaïnal
Concept & Development : Baudouin d'Aumeries
Co-Development & Prog : Marc-Olivier Méhu
Technical & hardware support : Manuel Goepfert

Contact : metmap@orbifly.com




SOURCES & CREDITS :

   NOAA